Strona główna
METAR-TAF:

METAR-TAF

Lotnisko :

Crookston, Minnesota, Stany Zjednoczone

Szerokość geograficzna: 47-51N, Długość geograficzna: 096-37W, wysokość: 273 m

Aktualna obserwacja pogody

Raport powstał 21 minut temu, godzina 21:55 UTC
Wiatr 6 kt od wschód
Temperatura 8°C
Wilgotność 71%
Ciśnienie 1006 hPa
Widzialność: 16.1 km
Przerywane chmury na wysokości 3400 ft

METAR: KCKN 062155Z AUTO 10006KT 10SM BKN034 08/03 A2971 RMK AO2

czas: 17:16 (22:16 UTC)


TAF: brakujący

Obserwacja i prognoza pogody dla ponad 4000 lotnisk (raport METAR i TAF).

Dostępne stacje oznaczono żółtymi i czerwonymi punktami na mapie.

Najedź kursorem aby zobaczyć nazwę stacji.

Kliknij aby zobaczyć obserwacje i prognozy pogody.

Aby zmienić mapę: kliknij na zielony przycisk z czarnym krzyżykiem, aby powiększyć; na zielony przycisk z myślnikiem, aby pomniejszyć; na zielone strzałki, aby przejść do map sąsiednich.


METAR-TAF: